sensor_id;sensor_type;location;lat;lon;timestamp;temperature;humidity
4651;DHT22;2338;49.602;8.722;2023-07-29T00:01:55;17.60;99.90
4651;DHT22;2338;49.602;8.722;2023-07-29T00:04:40;17.60;99.90
4651;DHT22;2338;49.602;8.722;2023-07-29T00:07:26;17.70;99.90
4651;DHT22;2338;49.602;8.722;2023-07-29T00:10:13;17.70;99.90
4651;DHT22;2338;49.602;8.722;2023-07-29T00:12:59;17.70;99.90
4651;DHT22;2338;49.602;8.722;2023-07-29T00:15:44;17.70;99.90
4651;DHT22;2338;49.602;8.722;2023-07-29T00:18:30;17.80;99.90
4651;DHT22;2338;49.602;8.722;2023-07-29T00:21:16;17.80;99.90
4651;DHT22;2338;49.602;8.722;2023-07-29T00:24:01;17.80;99.90
4651;DHT22;2338;49.602;8.722;2023-07-29T00:26:48;17.90;99.90
4651;DHT22;2338;49.602;8.722;2023-07-29T00:29:34;17.90;99.90
4651;DHT22;2338;49.602;8.722;2023-07-29T00:32:19;17.90;99.90
4651;DHT22;2338;49.602;8.722;2023-07-29T00:35:06;17.90;99.90
4651;DHT22;2338;49.602;8.722;2023-07-29T00:37:52;17.80;99.90
4651;DHT22;2338;49.602;8.722;2023-07-29T00:40:37;17.80;99.90
4651;DHT22;2338;49.602;8.722;2023-07-29T00:43:24;17.90;99.90
4651;DHT22;2338;49.602;8.722;2023-07-29T00:46:10;17.80;99.90
4651;DHT22;2338;49.602;8.722;2023-07-29T00:48:56;17.90;99.90
4651;DHT22;2338;49.602;8.722;2023-07-29T00:51:42;17.80;99.90
4651;DHT22;2338;49.602;8.722;2023-07-29T00:54:28;17.90;99.90
4651;DHT22;2338;49.602;8.722;2023-07-29T00:57:13;17.90;99.90
4651;DHT22;2338;49.602;8.722;2023-07-29T01:00:02;17.90;99.90
4651;DHT22;2338;49.602;8.722;2023-07-29T01:02:48;17.90;99.90
4651;DHT22;2338;49.602;8.722;2023-07-29T01:05:49;17.90;99.90
4651;DHT22;2338;49.602;8.722;2023-07-29T01:08:46;17.90;99.90
4651;DHT22;2338;49.602;8.722;2023-07-29T01:11:38;17.90;99.90
4651;DHT22;2338;49.602;8.722;2023-07-29T01:14:32;17.90;99.90
4651;DHT22;2338;49.602;8.722;2023-07-29T01:17:23;17.90;99.90
4651;DHT22;2338;49.602;8.722;2023-07-29T01:20:15;17.80;99.90
4651;DHT22;2338;49.602;8.722;2023-07-29T01:23:01;17.80;99.90
4651;DHT22;2338;49.602;8.722;2023-07-29T01:25:48;17.80;99.90
4651;DHT22;2338;49.602;8.722;2023-07-29T01:28:33;17.80;99.90
4651;DHT22;2338;49.602;8.722;2023-07-29T01:31:26;17.80;99.90
4651;DHT22;2338;49.602;8.722;2023-07-29T01:34:17;17.80;99.90
4651;DHT22;2338;49.602;8.722;2023-07-29T01:37:06;17.80;99.90
4651;DHT22;2338;49.602;8.722;2023-07-29T01:39:57;17.80;99.90
4651;DHT22;2338;49.602;8.722;2023-07-29T01:42:45;17.80;99.90
4651;DHT22;2338;49.602;8.722;2023-07-29T01:45:31;17.90;99.90
4651;DHT22;2338;49.602;8.722;2023-07-29T01:48:19;17.90;99.90
4651;DHT22;2338;49.602;8.722;2023-07-29T01:51:05;17.90;99.90
4651;DHT22;2338;49.602;8.722;2023-07-29T01:53:50;17.90;99.90
4651;DHT22;2338;49.602;8.722;2023-07-29T01:56:36;17.90;99.90
4651;DHT22;2338;49.602;8.722;2023-07-29T01:59:23;17.90;99.90
4651;DHT22;2338;49.602;8.722;2023-07-29T02:02:08;18.00;99.90
4651;DHT22;2338;49.602;8.722;2023-07-29T02:04:54;17.90;99.90
4651;DHT22;2338;49.602;8.722;2023-07-29T02:07:40;17.90;99.90
4651;DHT22;2338;49.602;8.722;2023-07-29T02:10:26;18.00;99.90
4651;DHT22;2338;49.602;8.722;2023-07-29T02:13:11;18.00;99.90
4651;DHT22;2338;49.602;8.722;2023-07-29T02:15:58;18.00;99.90
4651;DHT22;2338;49.602;8.722;2023-07-29T02:18:43;18.00;99.90
4651;DHT22;2338;49.602;8.722;2023-07-29T02:21:29;18.00;99.90
4651;DHT22;2338;49.602;8.722;2023-07-29T02:24:14;18.00;99.90
4651;DHT22;2338;49.602;8.722;2023-07-29T02:27:00;18.00;99.90
4651;DHT22;2338;49.602;8.722;2023-07-29T02:29:45;18.00;99.90
4651;DHT22;2338;49.602;8.722;2023-07-29T02:32:32;18.00;99.90
4651;DHT22;2338;49.602;8.722;2023-07-29T02:35:18;18.00;99.90
4651;DHT22;2338;49.602;8.722;2023-07-29T02:38:04;18.00;99.90
4651;DHT22;2338;49.602;8.722;2023-07-29T02:40:49;18.00;99.90
4651;DHT22;2338;49.602;8.722;2023-07-29T02:43:35;18.00;99.90
4651;DHT22;2338;49.602;8.722;2023-07-29T02:46:20;18.10;99.90
4651;DHT22;2338;49.602;8.722;2023-07-29T02:49:07;18.10;99.90
4651;DHT22;2338;49.602;8.722;2023-07-29T02:51:53;18.00;99.90
4651;DHT22;2338;49.602;8.722;2023-07-29T02:54:38;18.10;99.90
4651;DHT22;2338;49.602;8.722;2023-07-29T02:57:24;18.10;99.90
4651;DHT22;2338;49.602;8.722;2023-07-29T03:00:10;18.10;99.90
4651;DHT22;2338;49.602;8.722;2023-07-29T03:02:56;18.10;99.90
4651;DHT22;2338;49.602;8.722;2023-07-29T03:05:43;18.10;99.90
4651;DHT22;2338;49.602;8.722;2023-07-29T03:08:28;18.10;99.90
4651;DHT22;2338;49.602;8.722;2023-07-29T03:11:15;18.10;99.90
4651;DHT22;2338;49.602;8.722;2023-07-29T03:14:01;18.10;99.90
4651;DHT22;2338;49.602;8.722;2023-07-29T03:16:47;18.20;99.90
4651;DHT22;2338;49.602;8.722;2023-07-29T03:19:32;18.20;99.90
4651;DHT22;2338;49.602;8.722;2023-07-29T03:22:19;18.20;99.90
4651;DHT22;2338;49.602;8.722;2023-07-29T03:25:05;18.10;99.90
4651;DHT22;2338;49.602;8.722;2023-07-29T03:27:51;18.20;99.90
4651;DHT22;2338;49.602;8.722;2023-07-29T03:30:36;18.10;99.90
4651;DHT22;2338;49.602;8.722;2023-07-29T03:33:22;18.10;99.90
4651;DHT22;2338;49.602;8.722;2023-07-29T03:36:08;18.00;99.90
4651;DHT22;2338;49.602;8.722;2023-07-29T03:38:55;18.10;99.90
4651;DHT22;2338;49.602;8.722;2023-07-29T03:41:40;18.10;99.90
4651;DHT22;2338;49.602;8.722;2023-07-29T03:44:26;18.10;99.90
4651;DHT22;2338;49.602;8.722;2023-07-29T03:47:11;18.10;99.90
4651;DHT22;2338;49.602;8.722;2023-07-29T03:49:57;18.10;99.90
4651;DHT22;2338;49.602;8.722;2023-07-29T03:52:42;18.10;99.90
4651;DHT22;2338;49.602;8.722;2023-07-29T03:55:30;18.10;99.90
4651;DHT22;2338;49.602;8.722;2023-07-29T03:58:15;18.10;99.90
4651;DHT22;2338;49.602;8.722;2023-07-29T04:01:01;18.10;99.90
4651;DHT22;2338;49.602;8.722;2023-07-29T04:03:46;18.10;99.90
4651;DHT22;2338;49.602;8.722;2023-07-29T04:06:32;18.10;99.90
4651;DHT22;2338;49.602;8.722;2023-07-29T04:09:17;18.10;99.90
4651;DHT22;2338;49.602;8.722;2023-07-29T04:12:05;18.10;99.90
4651;DHT22;2338;49.602;8.722;2023-07-29T04:14:51;18.10;99.90
4651;DHT22;2338;49.602;8.722;2023-07-29T04:17:36;18.10;99.90
4651;DHT22;2338;49.602;8.722;2023-07-29T04:20:22;18.10;99.90
4651;DHT22;2338;49.602;8.722;2023-07-29T04:23:08;18.10;99.90
4651;DHT22;2338;49.602;8.722;2023-07-29T04:25:53;18.20;99.90
4651;DHT22;2338;49.602;8.722;2023-07-29T04:28:40;18.20;99.90
4651;DHT22;2338;49.602;8.722;2023-07-29T04:31:26;18.20;99.90
4651;DHT22;2338;49.602;8.722;2023-07-29T04:34:11;18.30;99.90
4651;DHT22;2338;49.602;8.722;2023-07-29T04:36:57;18.30;99.90
4651;DHT22;2338;49.602;8.722;2023-07-29T04:39:43;18.30;99.90
4651;DHT22;2338;49.602;8.722;2023-07-29T04:42:28;18.30;99.90
4651;DHT22;2338;49.602;8.722;2023-07-29T04:45:15;18.30;99.90
4651;DHT22;2338;49.602;8.722;2023-07-29T04:48:00;18.30;99.90
4651;DHT22;2338;49.602;8.722;2023-07-29T04:50:46;18.30;99.90
4651;DHT22;2338;49.602;8.722;2023-07-29T04:53:32;18.30;99.90
4651;DHT22;2338;49.602;8.722;2023-07-29T04:56:19;18.40;99.90
4651;DHT22;2338;49.602;8.722;2023-07-29T04:59:04;18.40;99.90
4651;DHT22;2338;49.602;8.722;2023-07-29T05:01:53;18.40;99.90
4651;DHT22;2338;49.602;8.722;2023-07-29T05:04:39;18.40;99.90
4651;DHT22;2338;49.602;8.722;2023-07-29T05:07:24;18.40;99.90
4651;DHT22;2338;49.602;8.722;2023-07-29T05:10:10;18.40;99.90
4651;DHT22;2338;49.602;8.722;2023-07-29T05:12:55;18.50;99.90
4651;DHT22;2338;49.602;8.722;2023-07-29T05:15:41;18.50;99.90
4651;DHT22;2338;49.602;8.722;2023-07-29T05:18:28;18.50;99.90
4651;DHT22;2338;49.602;8.722;2023-07-29T05:21:13;18.50;99.90
4651;DHT22;2338;49.602;8.722;2023-07-29T05:23:59;18.50;99.90
4651;DHT22;2338;49.602;8.722;2023-07-29T05:26:45;18.60;99.90
4651;DHT22;2338;49.602;8.722;2023-07-29T05:29:30;18.60;99.90
4651;DHT22;2338;49.602;8.722;2023-07-29T05:32:16;18.60;99.90
4651;DHT22;2338;49.602;8.722;2023-07-29T05:35:03;18.70;99.90
4651;DHT22;2338;49.602;8.722;2023-07-29T05:37:49;18.70;99.90
4651;DHT22;2338;49.602;8.722;2023-07-29T05:40:34;18.80;99.90
4651;DHT22;2338;49.602;8.722;2023-07-29T05:43:20;18.80;99.90
4651;DHT22;2338;49.602;8.722;2023-07-29T05:46:05;18.80;99.90
4651;DHT22;2338;49.602;8.722;2023-07-29T05:48:51;18.80;99.90
4651;DHT22;2338;49.602;8.722;2023-07-29T05:51:38;18.80;99.90
4651;DHT22;2338;49.602;8.722;2023-07-29T05:54:23;18.90;99.90
4651;DHT22;2338;49.602;8.722;2023-07-29T05:57:09;18.90;99.90
4651;DHT22;2338;49.602;8.722;2023-07-29T05:59:55;18.90;99.90
4651;DHT22;2338;49.602;8.722;2023-07-29T06:02:40;18.90;99.90
4651;DHT22;2338;49.602;8.722;2023-07-29T06:05:26;19.00;99.90
4651;DHT22;2338;49.602;8.722;2023-07-29T06:08:13;19.00;99.90
4651;DHT22;2338;49.602;8.722;2023-07-29T06:10:59;19.00;99.90
4651;DHT22;2338;49.602;8.722;2023-07-29T06:13:45;19.00;99.90
4651;DHT22;2338;49.602;8.722;2023-07-29T06:16:31;19.00;99.90
4651;DHT22;2338;49.602;8.722;2023-07-29T06:19:18;19.10;99.90
4651;DHT22;2338;49.602;8.722;2023-07-29T06:22:04;19.00;99.90
4651;DHT22;2338;49.602;8.722;2023-07-29T06:24:51;19.10;99.90
4651;DHT22;2338;49.602;8.722;2023-07-29T06:27:36;19.10;99.90
4651;DHT22;2338;49.602;8.722;2023-07-29T06:30:22;19.20;99.90
4651;DHT22;2338;49.602;8.722;2023-07-29T06:33:07;19.30;99.90
4651;DHT22;2338;49.602;8.722;2023-07-29T06:35:53;19.30;99.90
4651;DHT22;2338;49.602;8.722;2023-07-29T06:38:38;19.30;99.90
4651;DHT22;2338;49.602;8.722;2023-07-29T06:41:26;19.40;99.90
4651;DHT22;2338;49.602;8.722;2023-07-29T06:44:11;19.40;99.90
4651;DHT22;2338;49.602;8.722;2023-07-29T06:46:57;19.50;99.90
4651;DHT22;2338;49.602;8.722;2023-07-29T06:49:43;19.50;99.90
4651;DHT22;2338;49.602;8.722;2023-07-29T06:52:28;19.60;99.90
4651;DHT22;2338;49.602;8.722;2023-07-29T06:55:14;19.60;99.90
4651;DHT22;2338;49.602;8.722;2023-07-29T06:58:01;19.70;99.90
4651;DHT22;2338;49.602;8.722;2023-07-29T07:00:46;19.70;99.90
4651;DHT22;2338;49.602;8.722;2023-07-29T07:03:32;19.70;99.90
4651;DHT22;2338;49.602;8.722;2023-07-29T07:06:17;19.80;99.90
4651;DHT22;2338;49.602;8.722;2023-07-29T07:09:03;19.70;99.90
4651;DHT22;2338;49.602;8.722;2023-07-29T07:11:49;19.70;99.90
4651;DHT22;2338;49.602;8.722;2023-07-29T07:14:36;19.80;99.90
4651;DHT22;2338;49.602;8.722;2023-07-29T07:17:22;19.90;99.90
4651;DHT22;2338;49.602;8.722;2023-07-29T07:20:07;20.00;99.90
4651;DHT22;2338;49.602;8.722;2023-07-29T07:22:53;20.10;99.90
4651;DHT22;2338;49.602;8.722;2023-07-29T07:25:38;20.20;99.90
4651;DHT22;2338;49.602;8.722;2023-07-29T07:28:24;20.20;99.90
4651;DHT22;2338;49.602;8.722;2023-07-29T07:31:11;20.30;99.90
4651;DHT22;2338;49.602;8.722;2023-07-29T07:33:56;20.30;99.90
4651;DHT22;2338;49.602;8.722;2023-07-29T07:36:42;20.30;99.90
4651;DHT22;2338;49.602;8.722;2023-07-29T07:39:28;20.30;99.90
4651;DHT22;2338;49.602;8.722;2023-07-29T07:42:13;20.30;99.90
4651;DHT22;2338;49.602;8.722;2023-07-29T07:44:59;20.30;99.90
4651;DHT22;2338;49.602;8.722;2023-07-29T07:47:46;20.40;99.90
4651;DHT22;2338;49.602;8.722;2023-07-29T07:50:32;20.50;99.90
4651;DHT22;2338;49.602;8.722;2023-07-29T07:53:17;20.50;99.90
4651;DHT22;2338;49.602;8.722;2023-07-29T07:56:03;20.40;99.90
4651;DHT22;2338;49.602;8.722;2023-07-29T07:58:49;20.40;99.90
4651;DHT22;2338;49.602;8.722;2023-07-29T08:01:35;20.40;99.90
4651;DHT22;2338;49.602;8.722;2023-07-29T08:04:22;20.30;99.90
4651;DHT22;2338;49.602;8.722;2023-07-29T08:07:07;20.30;99.90
4651;DHT22;2338;49.602;8.722;2023-07-29T08:09:53;20.30;99.90
4651;DHT22;2338;49.602;8.722;2023-07-29T08:12:38;20.10;99.90
4651;DHT22;2338;49.602;8.722;2023-07-29T08:15:24;20.10;99.90
4651;DHT22;2338;49.602;8.722;2023-07-29T08:18:09;20.10;99.90
4651;DHT22;2338;49.602;8.722;2023-07-29T08:20:58;20.10;99.90
4651;DHT22;2338;49.602;8.722;2023-07-29T08:23:47;20.10;99.90
4651;DHT22;2338;49.602;8.722;2023-07-29T08:26:32;20.10;99.90
4651;DHT22;2338;49.602;8.722;2023-07-29T08:29:18;20.10;99.90
4651;DHT22;2338;49.602;8.722;2023-07-29T08:32:03;20.20;99.90
4651;DHT22;2338;49.602;8.722;2023-07-29T08:34:49;20.20;99.90
4651;DHT22;2338;49.602;8.722;2023-07-29T08:37:36;20.30;99.90
4651;DHT22;2338;49.602;8.722;2023-07-29T08:40:27;20.30;99.90
4651;DHT22;2338;49.602;8.722;2023-07-29T08:43:16;20.30;99.90
4651;DHT22;2338;49.602;8.722;2023-07-29T08:46:03;20.30;99.90
4651;DHT22;2338;49.602;8.722;2023-07-29T08:48:51;20.30;99.90
4651;DHT22;2338;49.602;8.722;2023-07-29T08:51:36;20.30;99.90
4651;DHT22;2338;49.602;8.722;2023-07-29T08:54:24;20.30;99.90
4651;DHT22;2338;49.602;8.722;2023-07-29T08:57:10;20.30;99.90
4651;DHT22;2338;49.602;8.722;2023-07-29T08:59:56;20.20;99.90
4651;DHT22;2338;49.602;8.722;2023-07-29T09:02:43;20.30;99.90
4651;DHT22;2338;49.602;8.722;2023-07-29T09:05:28;20.50;99.90
4651;DHT22;2338;49.602;8.722;2023-07-29T09:08:14;20.60;99.90
4651;DHT22;2338;49.602;8.722;2023-07-29T09:11:01;20.70;99.90
4651;DHT22;2338;49.602;8.722;2023-07-29T09:13:47;20.70;99.90
4651;DHT22;2338;49.602;8.722;2023-07-29T09:16:32;20.80;99.90
4651;DHT22;2338;49.602;8.722;2023-07-29T09:19:18;20.90;99.90
4651;DHT22;2338;49.602;8.722;2023-07-29T09:22:04;20.90;99.90
4651;DHT22;2338;49.602;8.722;2023-07-29T09:24:50;21.00;99.90
4651;DHT22;2338;49.602;8.722;2023-07-29T09:27:38;21.00;99.90
4651;DHT22;2338;49.602;8.722;2023-07-29T09:30:24;21.20;99.90
4651;DHT22;2338;49.602;8.722;2023-07-29T09:33:09;21.30;99.90
4651;DHT22;2338;49.602;8.722;2023-07-29T09:35:55;21.20;99.90
4651;DHT22;2338;49.602;8.722;2023-07-29T09:38:41;21.10;99.90
4651;DHT22;2338;49.602;8.722;2023-07-29T09:41:27;21.10;99.90
4651;DHT22;2338;49.602;8.722;2023-07-29T09:44:16;21.10;99.90
4651;DHT22;2338;49.602;8.722;2023-07-29T09:47:01;21.00;99.90
4651;DHT22;2338;49.602;8.722;2023-07-29T09:49:47;21.10;99.90
4651;DHT22;2338;49.602;8.722;2023-07-29T09:52:33;21.30;99.90
4651;DHT22;2338;49.602;8.722;2023-07-29T09:55:19;21.30;99.90
4651;DHT22;2338;49.602;8.722;2023-07-29T09:58:04;21.40;99.90
4651;DHT22;2338;49.602;8.722;2023-07-29T10:00:54;21.60;99.90
4651;DHT22;2338;49.602;8.722;2023-07-29T10:03:39;21.80;99.90
4651;DHT22;2338;49.602;8.722;2023-07-29T10:06:25;22.00;99.90
4651;DHT22;2338;49.602;8.722;2023-07-29T10:09:11;22.10;99.90
4651;DHT22;2338;49.602;8.722;2023-07-29T10:11:57;22.30;99.90
4651;DHT22;2338;49.602;8.722;2023-07-29T10:14:44;22.30;99.90
4651;DHT22;2338;49.602;8.722;2023-07-29T10:17:34;22.20;99.90
4651;DHT22;2338;49.602;8.722;2023-07-29T10:20:20;22.10;99.90
4651;DHT22;2338;49.602;8.722;2023-07-29T10:23:07;22.10;99.90
4651;DHT22;2338;49.602;8.722;2023-07-29T10:25:57;21.90;99.90
4651;DHT22;2338;49.602;8.722;2023-07-29T10:28:47;21.90;99.90
4651;DHT22;2338;49.602;8.722;2023-07-29T10:31:34;21.80;99.90
4651;DHT22;2338;49.602;8.722;2023-07-29T10:34:22;21.70;99.90
4651;DHT22;2338;49.602;8.722;2023-07-29T10:37:07;21.70;99.90
4651;DHT22;2338;49.602;8.722;2023-07-29T10:39:54;21.60;99.90
4651;DHT22;2338;49.602;8.722;2023-07-29T10:42:59;21.70;99.90
4651;DHT22;2338;49.602;8.722;2023-07-29T10:45:45;21.80;99.90
4651;DHT22;2338;49.602;8.722;2023-07-29T10:48:41;22.10;99.90
4651;DHT22;2338;49.602;8.722;2023-07-29T10:51:29;22.40;99.90
4651;DHT22;2338;49.602;8.722;2023-07-29T10:54:17;22.60;99.90
4651;DHT22;2338;49.602;8.722;2023-07-29T10:57:02;22.80;99.90
4651;DHT22;2338;49.602;8.722;2023-07-29T10:59:54;22.80;99.90
4651;DHT22;2338;49.602;8.722;2023-07-29T11:02:40;22.70;99.90
4651;DHT22;2338;49.602;8.722;2023-07-29T11:05:25;22.80;99.90
4651;DHT22;2338;49.602;8.722;2023-07-29T11:08:20;22.90;99.90
4651;DHT22;2338;49.602;8.722;2023-07-29T11:11:06;22.90;99.90
4651;DHT22;2338;49.602;8.722;2023-07-29T11:13:52;22.90;99.90
4651;DHT22;2338;49.602;8.722;2023-07-29T11:16:38;22.80;99.90
4651;DHT22;2338;49.602;8.722;2023-07-29T11:19:24;22.60;99.90
4651;DHT22;2338;49.602;8.722;2023-07-29T11:22:10;22.50;99.90
4651;DHT22;2338;49.602;8.722;2023-07-29T11:24:57;22.50;99.90
4651;DHT22;2338;49.602;8.722;2023-07-29T11:27:42;22.50;99.90
4651;DHT22;2338;49.602;8.722;2023-07-29T11:30:28;22.60;99.90
4651;DHT22;2338;49.602;8.722;2023-07-29T11:33:17;22.60;99.90
4651;DHT22;2338;49.602;8.722;2023-07-29T11:36:03;22.50;99.90
4651;DHT22;2338;49.602;8.722;2023-07-29T11:38:49;22.50;99.90
4651;DHT22;2338;49.602;8.722;2023-07-29T11:41:35;22.40;99.90
4651;DHT22;2338;49.602;8.722;2023-07-29T11:44:21;22.30;99.90
4651;DHT22;2338;49.602;8.722;2023-07-29T11:47:07;22.20;99.90
4651;DHT22;2338;49.602;8.722;2023-07-29T11:49:53;22.20;99.90
4651;DHT22;2338;49.602;8.722;2023-07-29T11:52:40;22.30;99.90
4651;DHT22;2338;49.602;8.722;2023-07-29T11:55:26;22.40;99.90
4651;DHT22;2338;49.602;8.722;2023-07-29T11:58:12;22.60;99.90
4651;DHT22;2338;49.602;8.722;2023-07-29T12:00:58;22.80;99.90
4651;DHT22;2338;49.602;8.722;2023-07-29T12:03:44;23.00;99.90
4651;DHT22;2338;49.602;8.722;2023-07-29T12:06:29;23.30;99.90
4651;DHT22;2338;49.602;8.722;2023-07-29T12:09:15;23.70;99.90
4651;DHT22;2338;49.602;8.722;2023-07-29T12:12:01;24.00;99.90
4651;DHT22;2338;49.602;8.722;2023-07-29T12:14:48;24.00;99.90
4651;DHT22;2338;49.602;8.722;2023-07-29T12:17:39;24.00;99.90
4651;DHT22;2338;49.602;8.722;2023-07-29T12:20:25;24.00;99.90
4651;DHT22;2338;49.602;8.722;2023-07-29T12:23:11;23.90;99.90
4651;DHT22;2338;49.602;8.722;2023-07-29T12:25:57;23.80;99.90
4651;DHT22;2338;49.602;8.722;2023-07-29T12:28:46;23.70;99.90
4651;DHT22;2338;49.602;8.722;2023-07-29T12:31:32;23.60;99.90
4651;DHT22;2338;49.602;8.722;2023-07-29T12:34:19;23.70;99.90
4651;DHT22;2338;49.602;8.722;2023-07-29T12:37:05;23.80;99.90
4651;DHT22;2338;49.602;8.722;2023-07-29T12:39:51;24.00;99.90
4651;DHT22;2338;49.602;8.722;2023-07-29T12:42:37;24.10;99.90
4651;DHT22;2338;49.602;8.722;2023-07-29T12:45:23;24.10;99.90
4651;DHT22;2338;49.602;8.722;2023-07-29T12:48:12;24.00;99.90
4651;DHT22;2338;49.602;8.722;2023-07-29T12:50:57;24.00;99.90
4651;DHT22;2338;49.602;8.722;2023-07-29T12:53:43;23.90;99.90
4651;DHT22;2338;49.602;8.722;2023-07-29T12:56:29;23.90;99.90
4651;DHT22;2338;49.602;8.722;2023-07-29T12:59:15;24.00;99.90
4651;DHT22;2338;49.602;8.722;2023-07-29T13:02:00;24.00;99.90
4651;DHT22;2338;49.602;8.722;2023-07-29T13:04:47;24.00;99.90
4651;DHT22;2338;49.602;8.722;2023-07-29T13:07:33;24.10;99.90
4651;DHT22;2338;49.602;8.722;2023-07-29T13:10:18;24.10;99.90
4651;DHT22;2338;49.602;8.722;2023-07-29T13:13:04;24.10;99.90
4651;DHT22;2338;49.602;8.722;2023-07-29T13:15:50;24.30;99.90
4651;DHT22;2338;49.602;8.722;2023-07-29T13:18:35;24.60;99.90
4651;DHT22;2338;49.602;8.722;2023-07-29T13:21:22;24.80;94.60
4651;DHT22;2338;49.602;8.722;2023-07-29T13:24:08;25.10;93.80
4651;DHT22;2338;49.602;8.722;2023-07-29T13:26:54;25.30;84.30
4651;DHT22;2338;49.602;8.722;2023-07-29T13:29:39;25.50;70.20
4651;DHT22;2338;49.602;8.722;2023-07-29T13:32:25;25.80;79.20
4651;DHT22;2338;49.602;8.722;2023-07-29T13:35:11;26.00;72.30
4651;DHT22;2338;49.602;8.722;2023-07-29T13:37:58;25.90;60.70
4651;DHT22;2338;49.602;8.722;2023-07-29T13:40:44;25.80;63.80
4651;DHT22;2338;49.602;8.722;2023-07-29T13:43:29;25.80;76.40
4651;DHT22;2338;49.602;8.722;2023-07-29T13:46:15;25.80;58.40
4651;DHT22;2338;49.602;8.722;2023-07-29T13:49:00;25.70;56.90
4651;DHT22;2338;49.602;8.722;2023-07-29T13:51:47;25.70;55.40
4651;DHT22;2338;49.602;8.722;2023-07-29T13:54:34;25.90;62.50
4651;DHT22;2338;49.602;8.722;2023-07-29T13:57:19;26.10;52.70
4651;DHT22;2338;49.602;8.722;2023-07-29T14:00:06;26.20;49.60
4651;DHT22;2338;49.602;8.722;2023-07-29T14:02:52;26.40;52.90
4651;DHT22;2338;49.602;8.722;2023-07-29T14:05:37;26.20;57.20
4651;DHT22;2338;49.602;8.722;2023-07-29T14:08:23;26.30;59.70
4651;DHT22;2338;49.602;8.722;2023-07-29T14:11:10;26.40;61.20
4651;DHT22;2338;49.602;8.722;2023-07-29T14:13:55;26.40;52.50
4651;DHT22;2338;49.602;8.722;2023-07-29T14:16:41;26.30;48.50
4651;DHT22;2338;49.602;8.722;2023-07-29T14:19:27;26.00;51.00
4651;DHT22;2338;49.602;8.722;2023-07-29T14:22:12;26.10;62.20
4651;DHT22;2338;49.602;8.722;2023-07-29T14:24:58;26.00;52.20
4651;DHT22;2338;49.602;8.722;2023-07-29T14:27:45;25.70;54.90
4651;DHT22;2338;49.602;8.722;2023-07-29T14:30:30;25.50;58.40
4651;DHT22;2338;49.602;8.722;2023-07-29T14:33:15;25.50;63.40
4651;DHT22;2338;49.602;8.722;2023-07-29T14:36:01;25.70;63.60
4651;DHT22;2338;49.602;8.722;2023-07-29T14:38:48;25.90;61.60
4651;DHT22;2338;49.602;8.722;2023-07-29T14:41:34;26.00;52.70
4651;DHT22;2338;49.602;8.722;2023-07-29T14:44:20;26.00;59.50
4651;DHT22;2338;49.602;8.722;2023-07-29T14:47:07;26.10;56.10
4651;DHT22;2338;49.602;8.722;2023-07-29T14:49:52;25.90;55.10
4651;DHT22;2338;49.602;8.722;2023-07-29T14:52:38;25.90;62.30
4651;DHT22;2338;49.602;8.722;2023-07-29T14:55:24;25.70;59.20
4651;DHT22;2338;49.602;8.722;2023-07-29T14:58:09;25.50;55.40
4651;DHT22;2338;49.602;8.722;2023-07-29T15:00:56;25.30;63.90
4651;DHT22;2338;49.602;8.722;2023-07-29T15:03:42;25.20;65.20
4651;DHT22;2338;49.602;8.722;2023-07-29T15:06:28;25.20;74.80
4651;DHT22;2338;49.602;8.722;2023-07-29T15:09:14;25.30;72.70
4651;DHT22;2338;49.602;8.722;2023-07-29T15:11:59;25.50;71.30
4651;DHT22;2338;49.602;8.722;2023-07-29T15:14:45;25.50;71.00
4651;DHT22;2338;49.602;8.722;2023-07-29T15:17:33;25.40;66.30
4651;DHT22;2338;49.602;8.722;2023-07-29T15:20:18;25.40;71.50
4651;DHT22;2338;49.602;8.722;2023-07-29T15:23:04;25.60;77.40
4651;DHT22;2338;49.602;8.722;2023-07-29T15:25:50;25.80;78.20
4651;DHT22;2338;49.602;8.722;2023-07-29T15:28:35;26.00;64.20
4651;DHT22;2338;49.602;8.722;2023-07-29T15:31:21;26.10;52.00
4651;DHT22;2338;49.602;8.722;2023-07-29T15:34:08;25.90;54.30
4651;DHT22;2338;49.602;8.722;2023-07-29T15:36:53;25.70;59.20
4651;DHT22;2338;49.602;8.722;2023-07-29T15:39:39;25.40;60.90
4651;DHT22;2338;49.602;8.722;2023-07-29T15:42:24;25.20;62.10
4651;DHT22;2338;49.602;8.722;2023-07-29T15:45:10;25.30;69.20
4651;DHT22;2338;49.602;8.722;2023-07-29T15:47:56;25.50;64.00
4651;DHT22;2338;49.602;8.722;2023-07-29T15:50:44;25.70;66.10
4651;DHT22;2338;49.602;8.722;2023-07-29T15:53:29;25.80;65.60
4651;DHT22;2338;49.602;8.722;2023-07-29T15:56:15;25.80;68.50
4651;DHT22;2338;49.602;8.722;2023-07-29T15:59:01;25.80;68.10
4651;DHT22;2338;49.602;8.722;2023-07-29T16:01:46;26.00;72.10
4651;DHT22;2338;49.602;8.722;2023-07-29T16:04:33;25.90;59.00
4651;DHT22;2338;49.602;8.722;2023-07-29T16:07:20;25.90;61.30
4651;DHT22;2338;49.602;8.722;2023-07-29T16:10:07;26.00;69.60
4651;DHT22;2338;49.602;8.722;2023-07-29T16:12:52;26.10;58.30
4651;DHT22;2338;49.602;8.722;2023-07-29T16:15:38;26.10;55.90
4651;DHT22;2338;49.602;8.722;2023-07-29T16:18:23;26.00;63.50
4651;DHT22;2338;49.602;8.722;2023-07-29T16:21:09;26.00;57.90
4651;DHT22;2338;49.602;8.722;2023-07-29T16:23:56;26.00;55.90
4651;DHT22;2338;49.602;8.722;2023-07-29T16:26:41;25.80;58.50
4651;DHT22;2338;49.602;8.722;2023-07-29T16:29:27;25.70;60.90
4651;DHT22;2338;49.602;8.722;2023-07-29T16:32:14;25.70;59.20
4651;DHT22;2338;49.602;8.722;2023-07-29T16:34:59;25.70;57.80
4651;DHT22;2338;49.602;8.722;2023-07-29T16:37:45;25.60;59.10
4651;DHT22;2338;49.602;8.722;2023-07-29T16:40:32;25.50;62.00
4651;DHT22;2338;49.602;8.722;2023-07-29T16:43:18;25.30;61.40
4651;DHT22;2338;49.602;8.722;2023-07-29T16:46:04;25.10;58.00
4651;DHT22;2338;49.602;8.722;2023-07-29T16:48:49;25.00;63.10
4651;DHT22;2338;49.602;8.722;2023-07-29T16:51:35;25.00;67.80
4651;DHT22;2338;49.602;8.722;2023-07-29T16:54:20;24.90;73.70
4651;DHT22;2338;49.602;8.722;2023-07-29T16:57:07;24.90;69.60
4651;DHT22;2338;49.602;8.722;2023-07-29T16:59:52;24.90;81.50
4651;DHT22;2338;49.602;8.722;2023-07-29T17:02:38;24.80;84.80
4651;DHT22;2338;49.602;8.722;2023-07-29T17:05:23;24.70;76.50
4651;DHT22;2338;49.602;8.722;2023-07-29T17:08:08;24.70;78.70
4651;DHT22;2338;49.602;8.722;2023-07-29T17:10:54;24.70;81.00
4651;DHT22;2338;49.602;8.722;2023-07-29T17:13:41;24.70;88.30
4651;DHT22;2338;49.602;8.722;2023-07-29T17:16:27;24.70;83.30
4651;DHT22;2338;49.602;8.722;2023-07-29T17:19:12;24.70;87.70
4651;DHT22;2338;49.602;8.722;2023-07-29T17:21:58;24.60;87.50
4651;DHT22;2338;49.602;8.722;2023-07-29T17:24:43;24.50;82.60
4651;DHT22;2338;49.602;8.722;2023-07-29T17:27:29;24.50;90.60
4651;DHT22;2338;49.602;8.722;2023-07-29T17:30:16;24.40;87.60
4651;DHT22;2338;49.602;8.722;2023-07-29T17:33:01;24.40;91.40
4651;DHT22;2338;49.602;8.722;2023-07-29T17:35:47;24.30;96.10
4651;DHT22;2338;49.602;8.722;2023-07-29T17:38:33;24.20;99.90
4651;DHT22;2338;49.602;8.722;2023-07-29T17:41:19;24.10;99.90
4651;DHT22;2338;49.602;8.722;2023-07-29T17:44:04;24.10;99.90
4651;DHT22;2338;49.602;8.722;2023-07-29T17:46:51;23.90;99.90
4651;DHT22;2338;49.602;8.722;2023-07-29T17:49:37;23.90;99.90
4651;DHT22;2338;49.602;8.722;2023-07-29T17:52:24;23.80;99.90
4651;DHT22;2338;49.602;8.722;2023-07-29T17:55:09;23.80;99.90
4651;DHT22;2338;49.602;8.722;2023-07-29T17:57:55;23.70;99.90
4651;DHT22;2338;49.602;8.722;2023-07-29T18:00:41;23.60;99.90
4651;DHT22;2338;49.602;8.722;2023-07-29T18:03:28;23.50;99.90
4651;DHT22;2338;49.602;8.722;2023-07-29T18:06:14;23.40;99.90